createdAt,value
2023-04-22T00:00:03.357Z,54
2023-04-22T00:20:03.020Z,56
2023-04-22T00:40:02.405Z,56
2023-04-22T01:00:02.911Z,58
2023-04-22T01:20:02.488Z,58
2023-04-22T01:40:02.904Z,57
2023-04-22T02:00:02.296Z,57
2023-04-22T02:20:03.079Z,58
2023-04-22T02:40:02.481Z,58
2023-04-22T03:00:02.766Z,58
2023-04-22T03:20:02.460Z,59
2023-04-22T03:40:02.955Z,59
2023-04-22T04:00:02.364Z,59
2023-04-22T04:20:02.970Z,60
2023-04-22T04:40:02.384Z,60
2023-04-22T05:00:02.941Z,61
2023-04-22T05:20:02.264Z,60
2023-04-22T05:40:02.478Z,59
2023-04-22T06:00:02.810Z,58
2023-04-22T06:20:02.522Z,56
2023-04-22T06:40:02.986Z,54
2023-04-22T07:00:02.431Z,51
2023-04-22T07:20:03.100Z,48
2023-04-22T07:40:02.500Z,44
2023-04-22T08:00:02.899Z,41
2023-04-22T08:20:02.747Z,39
2023-04-22T08:40:03.532Z,36
2023-04-22T09:00:02.893Z,33
2023-04-22T09:20:02.519Z,31
2023-04-22T09:40:02.887Z,29
2023-04-22T10:00:02.204Z,27
2023-04-22T10:20:03.026Z,26
2023-04-22T10:40:02.461Z,25
2023-04-22T11:00:02.920Z,24
2023-04-22T11:20:02.493Z,24
2023-04-22T11:40:30.486Z,24
2023-04-22T12:00:02.650Z,24
2023-04-22T12:20:03.145Z,24
2023-04-22T12:40:02.773Z,25
2023-04-22T13:00:03.131Z,25
2023-04-22T13:20:02.732Z,26
2023-04-22T13:40:03.058Z,26
2023-04-22T14:00:02.540Z,27
2023-04-22T14:20:03.085Z,27
2023-04-22T14:40:02.366Z,28
2023-04-22T15:00:02.868Z,28
2023-04-22T15:20:02.346Z,27
2023-04-22T15:40:02.778Z,27
2023-04-22T16:00:13.329Z,27
2023-04-22T16:20:02.571Z,28
2023-04-22T16:40:03.024Z,27
2023-04-22T17:00:02.737Z,28
2023-04-22T17:20:02.471Z,28
2023-04-22T17:40:02.962Z,29
2023-04-22T18:00:03.084Z,31
2023-04-22T18:20:18.470Z,34
2023-04-22T18:40:02.531Z,39
2023-04-22T19:00:03.024Z,42
2023-04-22T19:20:02.509Z,45
2023-04-22T19:40:02.768Z,46
2023-04-22T20:00:03.420Z,49
2023-04-22T20:20:02.878Z,52
2023-04-22T20:40:02.259Z,51
2023-04-22T21:00:02.613Z,52
2023-04-22T21:20:02.348Z,48
2023-04-22T21:40:02.794Z,47
2023-04-22T22:00:03.221Z,48
2023-04-22T22:20:02.749Z,48
2023-04-22T22:40:03.205Z,48
2023-04-22T23:00:02.705Z,49
2023-04-22T23:20:02.363Z,50
2023-04-22T23:40:02.600Z,50
